Terminal Aerodrome Forecast
Issued by NWS

Current Version | Previous Version | Text Only | Print | Product List | Glossary Off
Versions: 1 2 3 4 5 6 7 8 9 10 11 12 13 14

000
FTUS41 KILN 231700
TAFLCK
TAF
KLCK 231730Z 2318/2418 18005KT P6SM FEW150 SCT250
     FM232300 10005KT P6SM SCT100
     FM241300 17007KT P6SM FEW050 SCT100=

USA.gov is the U.S. government's official web portal to all federal, state and local government web resources and services.